Time;durP1;ratioP1;P1;durP2;ratioP2;P2;SDS_P1;SDS_P2;PMS_P1;PMS_P2;Temp;Humidity;BMP_temperature;BMP_pressure;BME280_temperature;BME280_humidity;BME280_pressure;Samples;Min_cycle;Max_cycle;Signal;HPM_P1;HPM_P2
2021/04/23 00:00:23;;;;;;;7.2;5.1;;;;;;;;;;;;;
2021/04/23 00:02:48;;;;;;;7.9;5.8;;;;;;;;;;;;;
2021/04/23 00:05:13;;;;;;;13.5;6.4;;;;;;;;;;;;;
2021/04/23 00:07:38;;;;;;;9.4;5.8;;;;;;;;;;;;;
2021/04/23 00:10:03;;;;;;;10.3;5.4;;;;;;;;;;;;;
2021/04/23 00:12:30;;;;;;;7.3;5.3;;;;;;;;;;;;;
2021/04/23 00:14:56;;;;;;;8.2;5.1;;;;;;;;;;;;;
2021/04/23 00:17:21;;;;;;;10.5;5.9;;;;;;;;;;;;;
2021/04/23 00:19:46;;;;;;;9.3;5.7;;;;;;;;;;;;;
2021/04/23 00:22:13;;;;;;;6.2;4.6;;;;;;;;;;;;;
2021/04/23 00:24:38;;;;;;;10.8;5.8;;;;;;;;;;;;;
2021/04/23 00:27:03;;;;;;;9.5;5.4;;;;;;;;;;;;;
2021/04/23 00:29:28;;;;;;;10.2;6.6;;;;;;;;;;;;;
2021/04/23 00:34:19;;;;;;;8.9;5.7;;;;;;;;;;;;;
2021/04/23 00:36:45;;;;;;;11.1;5;;;;;;;;;;;;;
2021/04/23 00:39:10;;;;;;;5.2;4.3;;;;;;;;;;;;;
2021/04/23 00:41:36;;;;;;;9.9;5;;;;;;;;;;;;;
2021/04/23 00:44:02;;;;;;;8.2;4.5;;;;;;;;;;;;;
2021/04/23 00:46:28;;;;;;;8.8;5;;;;;;;;;;;;;
2021/04/23 00:48:52;;;;;;;14.5;5.6;;;;;;;;;;;;;
2021/04/23 00:51:18;;;;;;;12;5.4;;;;;;;;;;;;;
2021/04/23 00:53:43;;;;;;;10.1;5.2;;;;;;;;;;;;;
2021/04/23 00:56:10;;;;;;;11.6;6.4;;;;;;;;;;;;;
2021/04/23 00:58:35;;;;;;;9.9;5.5;;;;;;;;;;;;;
2021/04/23 01:01:01;;;;;;;7.2;5.7;;;;;;;;;;;;;
2021/04/23 01:03:27;;;;;;;9.3;5.1;;;;;;;;;;;;;
2021/04/23 01:05:52;;;;;;;7.5;5.1;;;;;;;;;;;;;
2021/04/23 01:08:17;;;;;;;8.8;5.4;;;;;;;;;;;;;
2021/04/23 01:10:45;;;;;;;6.3;5;;;;;;;;;;;;;
2021/04/23 01:13:10;;;;;;;7.5;5;;;;;;;;;;;;;
2021/04/23 01:15:43;;;;;;;9;4.9;;;;;;;;;;;;;
2021/04/23 01:18:08;;;;;;;7.6;5.1;;;;;;;;;;;;;
2021/04/23 01:20:35;;;;;;;11.2;6.1;;;;;;;;;;;;;
2021/04/23 01:23:04;;;;;;;10.5;5.7;;;;;;;;;;;;;
2021/04/23 01:25:30;;;;;;;6.7;5.1;;;;;;;;;;;;;
2021/04/23 01:27:55;;;;;;;6.9;5;;;;;;;;;;;;;
2021/04/23 01:30:20;;;;;;;8.7;5.8;;;;;;;;;;;;;
2021/04/23 01:32:46;;;;;;;11.6;5.7;;;;;;;;;;;;;
2021/04/23 01:35:11;;;;;;;9.3;5.9;;;;;;;;;;;;;
2021/04/23 01:37:38;;;;;;;7.3;5.2;;;;;;;;;;;;;
2021/04/23 01:40:03;;;;;;;9.5;5.6;;;;;;;;;;;;;
2021/04/23 01:42:29;;;;;;;8.9;5.8;;;;;;;;;;;;;
2021/04/23 01:44:57;;;;;;;8.3;5.3;;;;;;;;;;;;;
2021/04/23 01:47:21;;;;;;;9.1;5.6;;;;;;;;;;;;;
2021/04/23 01:49:46;;;;;;;9.1;5.2;;;;;;;;;;;;;
2021/04/23 01:52:13;;;;;;;8.3;5.6;;;;;;;;;;;;;
2021/04/23 01:54:38;;;;;;;8.6;4.6;;;;;;;;;;;;;
2021/04/23 01:57:04;;;;;;;6.7;5.1;;;;;;;;;;;;;
2021/04/23 01:59:29;;;;;;;6.2;4.3;;;;;;;;;;;;;
2021/04/23 02:01:54;;;;;;;6.9;4;;;;;;;;;;;;;
2021/04/23 02:04:20;;;;;;;7.3;4.5;;;;;;;;;;;;;
2021/04/23 02:06:46;;;;;;;5.7;4.4;;;;;;;;;;;;;
2021/04/23 02:09:11;;;;;;;8.3;4.4;;;;;;;;;;;;;
2021/04/23 02:11:38;;;;;;;7.3;5;;;;;;;;;;;;;
2021/04/23 02:14:04;;;;;;;8;4.6;;;;;;;;;;;;;
2021/04/23 02:16:34;;;;;;;6.8;4.3;;;;;;;;;;;;;
2021/04/23 02:19:01;;;;;;;7;4.6;;;;;;;;;;;;;
2021/04/23 02:21:26;;;;;;;6;4.7;;;;;;;;;;;;;
2021/04/23 02:23:51;;;;;;;8.3;5;;;;;;;;;;;;;
2021/04/23 02:26:16;;;;;;;6.9;4.8;;;;;;;;;;;;;
2021/04/23 02:28:43;;;;;;;7.6;4.8;;;;;;;;;;;;;
2021/04/23 02:31:08;;;;;;;5.7;4.1;;;;;;;;;;;;;
2021/04/23 02:33:34;;;;;;;8.5;4.7;;;;;;;;;;;;;
2021/04/23 02:36:00;;;;;;;7.5;4.9;;;;;;;;;;;;;
2021/04/23 02:38:27;;;;;;;10;5.2;;;;;;;;;;;;;
2021/04/23 02:40:52;;;;;;;8.2;4.5;;;;;;;;;;;;;
2021/04/23 02:43:17;;;;;;;9.8;5.3;;;;;;;;;;;;;
2021/04/23 02:45:42;;;;;;;7.1;4.5;;;;;;;;;;;;;
2021/04/23 02:48:07;;;;;;;8.3;5.2;;;;;;;;;;;;;
2021/04/23 02:50:33;;;;;;;7.3;4.8;;;;;;;;;;;;;
2021/04/23 02:52:58;;;;;;;7.3;4.9;;;;;;;;;;;;;
2021/04/23 02:55:23;;;;;;;11.7;5.2;;;;;;;;;;;;;
2021/04/23 02:57:49;;;;;;;6.7;4.2;;;;;;;;;;;;;
2021/04/23 03:00:14;;;;;;;6.7;4.8;;;;;;;;;;;;;
2021/04/23 03:02:39;;;;;;;8.4;4.7;;;;;;;;;;;;;
2021/04/23 03:05:05;;;;;;;7.9;5;;;;;;;;;;;;;
2021/04/23 03:07:31;;;;;;;10.7;5.1;;;;;;;;;;;;;
2021/04/23 03:09:56;;;;;;;5.9;4.3;;;;;;;;;;;;;
2021/04/23 03:12:22;;;;;;;8.8;5.3;;;;;;;;;;;;;
2021/04/23 03:14:47;;;;;;;7.4;4.6;;;;;;;;;;;;;
2021/04/23 03:17:18;;;;;;;5.7;4.1;;;;;;;;;;;;;
2021/04/23 03:19:45;;;;;;;12.5;4.4;;;;;;;;;;;;;
2021/04/23 03:22:10;;;;;;;8.4;5.5;;;;;;;;;;;;;
2021/04/23 03:24:36;;;;;;;6.4;4.9;;;;;;;;;;;;;
2021/04/23 03:27:01;;;;;;;11.2;5;;;;;;;;;;;;;
2021/04/23 03:29:27;;;;;;;6.3;3.8;;;;;;;;;;;;;
2021/04/23 03:31:53;;;;;;;7.9;5.1;;;;;;;;;;;;;
2021/04/23 03:34:19;;;;;;;8.3;4.5;;;;;;;;;;;;;
2021/04/23 03:36:44;;;;;;;7.9;4.9;;;;;;;;;;;;;
2021/04/23 03:39:09;;;;;;;6.4;4.1;;;;;;;;;;;;;
2021/04/23 03:41:35;;;;;;;10.2;4.4;;;;;;;;;;;;;
2021/04/23 03:44:00;;;;;;;8.7;4.2;;;;;;;;;;;;;
2021/04/23 03:46:25;;;;;;;5.9;3.9;;;;;;;;;;;;;
2021/04/23 03:48:51;;;;;;;6.4;4.1;;;;;;;;;;;;;
2021/04/23 03:51:16;;;;;;;6.2;4.1;;;;;;;;;;;;;
2021/04/23 03:53:42;;;;;;;6;4;;;;;;;;;;;;;
2021/04/23 03:56:07;;;;;;;8.6;4.3;;;;;;;;;;;;;
2021/04/23 03:58:33;;;;;;;7.9;4.4;;;;;;;;;;;;;
2021/04/23 04:02:31;;;;;;;6.3;4;;;;;;;3.04;89.8252;944.2555;;;;
2021/04/23 04:04:56;;;;;;;7.7;4.4;;;;;;;2.98;90.2041;944.2617;;;;
2021/04/23 04:07:22;;;;;;;5.1;4.6;;;;;;;2.99;90.17383;944.3128;;;;
2021/04/23 04:09:48;;;;;;;6.2;4.2;;;;;;;2.97;90.25781;944.2786;;;;
2021/04/23 04:12:16;;;;;;;7.3;4.4;;;;;;;3.04;90.02637;944.3625;;;;
2021/04/23 04:14:42;;;;;;;5.7;3.7;;;;;;;3.05;89.81543;944.3733;;;;
2021/04/23 04:17:08;;;;;;;5.4;3.9;;;;;;;3.1;89.61133;944.4361;;;;
2021/04/23 04:19:40;;;;;;;7.2;4.3;;;;;;;3.11;89.53711;944.402;;;;
2021/04/23 04:22:05;;;;;;;6.9;3.5;;;;;;;3.08;89.59863;944.426;;;;
2021/04/23 04:24:35;;;;;;;6.2;3.7;;;;;;;3.12;89.58398;944.4836;;;;
2021/04/23 04:27:00;;;;;;;5.9;3.8;;;;;;;3.18;89.27148;944.5472;;;;
2021/04/23 04:29:29;;;;;;;6.4;4.1;;;;;;;3.08;89.2041;944.5302;;;;
2021/04/23 04:31:55;;;;;;;5.5;4.1;;;;;;;3.1;89.15332;944.5355;;;;
2021/04/23 04:34:23;;;;;;;6.8;4.5;;;;;;;3.03;89.2168;944.5649;;;;
2021/04/23 04:36:48;;;;;;;9.8;4.3;;;;;;;3.09;88.96094;944.5883;;;;
2021/04/23 04:39:18;;;;;;;7.9;4.3;;;;;;;3.12;88.8877;944.6501;;;;
2021/04/23 04:41:43;;;;;;;5.2;3.8;;;;;;;3.07;88.94434;944.5781;;;;
2021/04/23 04:44:10;;;;;;;10.5;4.5;;;;;;;3.06;89.04492;944.6342;;;;
2021/04/23 04:46:35;;;;;;;6;4.3;;;;;;;3.01;89.17969;944.73;;;;
2021/04/23 04:49:03;;;;;;;8.1;5.1;;;;;;;3.03;89.34082;944.6688;;;;
2021/04/23 04:51:29;;;;;;;7.7;4.8;;;;;;;3.03;89.26367;944.7896;;;;
2021/04/23 04:53:57;;;;;;;10.2;4.3;;;;;;;2.83;89.75879;944.8423;;;;
2021/04/23 04:56:23;;;;;;;9.2;4.6;;;;;;;2.72;90.69824;944.8797;;;;
2021/04/23 04:58:50;;;;;;;7.3;5;;;;;;;2.61;91.38281;944.9178;;;;
2021/04/23 05:01:15;;;;;;;7;4.6;;;;;;;2.74;91.65625;944.8652;;;;
2021/04/23 05:03:43;;;;;;;7.7;4.6;;;;;;;2.8;91.47949;944.9392;;;;
2021/04/23 05:06:10;;;;;;;9.3;4.6;;;;;;;2.95;90.96094;944.9558;;;;
2021/04/23 05:08:33;;;;;;;6.7;4.7;;;;;;;3.11;90.54492;945.0242;;;;
2021/04/23 05:11:01;;;;;;;10.5;5.7;;;;;;;3.36;89.82617;945.0281;;;;
2021/04/23 05:13:26;;;;;;;9.9;5.2;;;;;;;3.42;89.0293;945.1379;;;;
2021/04/23 05:16:02;;;;;;;11.7;4.7;;;;;;;3.48;88.76172;945.1355;;;;
2021/04/23 05:18:27;;;;;;;5.5;4.2;;;;;;;3.65;88.29199;945.1445;;;;
2021/04/23 05:20:59;;;;;;;9.1;5.2;;;;;;;3.71;88.15723;945.1827;;;;
2021/04/23 05:23:28;;;;;;;7.4;4.6;;;;;;;3.71;87.57227;945.1923;;;;
2021/04/23 05:25:54;;;;;;;9.3;4.8;;;;;;;3.81;87.27832;945.1953;;;;
2021/04/23 05:28:23;;;;;;;9;4.7;;;;;;;3.88;87.02539;945.1498;;;;
2021/04/23 05:30:48;;;;;;;7.1;4.6;;;;;;;4.21;86.94531;945.187;;;;
2021/04/23 05:33:17;;;;;;;11.3;5.9;;;;;;;5.04;84.62207;945.2109;;;;
2021/04/23 05:35:47;;;;;;;8.9;5.1;;;;;;;5.85;80.94238;945.2358;;;;
2021/04/23 05:38:13;;;;;;;5.5;3.7;;;;;;;6.61;77.8291;945.1252;;;;
2021/04/23 05:40:45;;;;;;;4.9;3.4;;;;;;;8.09;71.6709;945.1211;;;;
2021/04/23 05:43:09;;;;;;;4.6;3.3;;;;;;;8.46;69.00684;945.0764;;;;
2021/04/23 05:45:34;;;;;;;7.1;3.3;;;;;;;8.75;68.51758;945.095;;;;
2021/04/23 05:47:59;;;;;;;7.1;3.4;;;;;;;9.1;67.3916;945.0828;;;;
2021/04/23 05:50:26;;;;;;;6.3;2.9;;;;;;;9.7;64.32813;945.1071;;;;
2021/04/23 05:52:50;;;;;;;3.3;2.4;;;;;;;9.66;64.24316;945.0616;;;;
2021/04/23 05:55:20;;;;;;;4.4;3.1;;;;;;;9.61;64.78223;945.1248;;;;
2021/04/23 05:57:46;;;;;;;9.6;3.5;;;;;;;9.49;68.11133;945.108;;;;
2021/04/23 06:00:14;;;;;;;5.1;3;;;;;;;10.04;64.76758;945.0836;;;;
2021/04/23 06:02:39;;;;;;;4;3;;;;;;;10.58;62.38086;945.0687;;;;
2021/04/23 06:05:04;;;;;;;5;3;;;;;;;11.26;60.30566;945.0438;;;;
2021/04/23 06:07:31;;;;;;;4;2.3;;;;;;;11.19;59.47168;945.0206;;;;
2021/04/23 06:10:01;;;;;;;6.2;2.9;;;;;;;10.93;60.7168;945.0516;;;;
2021/04/23 06:12:26;;;;;;;5;3.1;;;;;;;10.86;60.20508;945.1141;;;;
2021/04/23 06:14:53;;;;;;;5.2;3.1;;;;;;;11.22;60.25488;945.0136;;;;
2021/04/23 06:17:26;;;;;;;4.5;2.4;;;;;;;11.9;57.7959;945.022;;;;
2021/04/23 06:19:50;;;;;;;3.5;2.6;;;;;;;12.43;55.6875;944.9648;;;;
2021/04/23 06:22:15;;;;;;;4;2.8;;;;;;;13.53;52.71191;944.9833;;;;
2021/04/23 06:24:40;;;;;;;2.8;2.1;;;;;;;13.8;50.8457;944.9482;;;;
2021/04/23 06:27:09;;;;;;;5.1;2.4;;;;;;;13.4;51.71973;944.9619;;;;
2021/04/23 06:29:35;;;;;;;3.3;1.7;;;;;;;12.99;52.2207;944.8833;;;;
2021/04/23 06:32:00;;;;;;;3.2;2;;;;;;;11.78;55.12207;944.8925;;;;
2021/04/23 06:34:25;;;;;;;2.6;2;;;;;;;11.9;57.1416;944.9158;;;;
2021/04/23 06:36:52;;;;;;;3;2.2;;;;;;;11.53;57.55078;944.9115;;;;
2021/04/23 06:39:17;;;;;;;5.2;1.9;;;;;;;11.81;56.96973;944.883;;;;
2021/04/23 06:41:44;;;;;;;2.6;2;;;;;;;12.75;54.96973;944.8308;;;;
2021/04/23 06:44:09;;;;;;;2;1.6;;;;;;;12.16;55.23926;944.8488;;;;
2021/04/23 06:46:35;;;;;;;23.3;2.6;;;;;;;12.76;54.87891;944.8724;;;;
2021/04/23 06:49:00;;;;;;;2.3;1.9;;;;;;;12.85;54.08691;944.8474;;;;
2021/04/23 06:51:27;;;;;;;2.2;1.8;;;;;;;11.92;56.42285;944.8571;;;;
2021/04/23 06:53:51;;;;;;;3.6;2;;;;;;;12.58;56.39453;944.8013;;;;
2021/04/23 06:56:17;;;;;;;4.1;2.3;;;;;;;13.49;53.98438;944.7982;;;;
2021/04/23 06:58:43;;;;;;;3.6;2.7;;;;;;;13.99;52.28613;944.829;;;;
2021/04/23 07:01:11;;;;;;;5.4;2.1;;;;;;;13.46;52.02539;944.8059;;;;
2021/04/23 07:03:36;;;;;;;4.3;1.9;;;;;;;13.73;52.63281;944.8276;;;;
2021/04/23 07:06:01;;;;;;;4.7;1.9;;;;;;;15.6;48.26074;944.8051;;;;
2021/04/23 07:08:26;;;;;;;4.8;2;;;;;;;16.3;45.31836;944.8122;;;;
2021/04/23 07:10:52;;;;;;;2;1.8;;;;;;;16.28;46.73926;944.7776;;;;
2021/04/23 07:13:18;;;;;;;2.5;1.6;;;;;;;16.4;44.60059;944.7347;;;;
2021/04/23 07:15:50;;;;;;;2.7;1.7;;;;;;;15.17;46.86426;944.8172;;;;
2021/04/23 07:18:15;;;;;;;2.7;1.9;;;;;;;17.33;44.39355;944.7108;;;;
2021/04/23 07:20:40;;;;;;;2.9;1.5;;;;;;;17.62;39.81543;944.752;;;;
2021/04/23 07:23:05;;;;;;;3.2;1.8;;;;;;;17.83;41.27441;944.747;;;;
2021/04/23 07:25:30;;;;;;;2.4;1.6;;;;;;;18.07;38.17188;944.7645;;;;
2021/04/23 07:27:57;;;;;;;2.5;1.8;;;;;;;19.9;38.68066;944.7215;;;;
2021/04/23 07:30:21;;;;;;;3.2;1.6;;;;;;;21.57;34.89258;944.6951;;;;
2021/04/23 07:32:46;;;;;;;3.8;2.2;;;;;;;21.45;35.07031;944.6744;;;;
2021/04/23 07:35:11;;;;;;;4.7;1.7;;;;;;;22.12;34.02148;944.6872;;;;
2021/04/23 07:37:36;;;;;;;3.5;1.5;;;;;;;23.05;31.47266;944.718;;;;
2021/04/23 07:40:03;;;;;;;5.3;2.3;;;;;;;19.83;35.78223;944.7217;;;;
2021/04/23 07:42:28;;;;;;;2.2;1.8;;;;;;;20.85;36.20313;944.6728;;;;
2021/04/23 07:44:55;;;;;;;3.4;2;;;;;;;21.11;35.47656;944.7123;;;;
2021/04/23 07:47:19;;;;;;;1.7;1.4;;;;;;;22.12;34.72461;944.6476;;;;
2021/04/23 07:49:47;;;;;;;1.9;1.5;;;;;;;23.82;30.72754;944.6755;;;;
2021/04/23 07:52:11;;;;;;;2.9;1.7;;;;;;;23.83;31.0332;944.6373;;;;
2021/04/23 07:54:36;;;;;;;2.7;1.7;;;;;;;24.33;29.71387;944.6113;;;;
2021/04/23 07:57:01;;;;;;;1.4;1.2;;;;;;;25.47;28.00586;944.5991;;;;
2021/04/23 07:59:29;;;;;;;3;1.7;;;;;;;25.44;28.97266;944.6639;;;;
2021/04/23 08:01:56;;;;;;;4.2;1.5;;;;;;;26.05;26.43359;944.7195;;;;
2021/04/23 08:04:20;;;;;;;1.6;1.5;;;;;;;27.41;25.30371;944.6833;;;;
2021/04/23 08:06:45;;;;;;;5.2;1.9;;;;;;;27.12;24.87305;944.7188;;;;
2021/04/23 08:09:11;;;;;;;3.1;1.7;;;;;;;27.36;24.69629;944.7426;;;;
2021/04/23 08:11:36;;;;;;;2.8;1.8;;;;;;;28.68;24.24512;944.7285;;;;
2021/04/23 08:14:01;;;;;;;2.2;1.8;;;;;;;28.78;23.83398;944.6944;;;;
2021/04/23 08:16:26;;;;;;;2.4;1.6;;;;;;;27.33;26.11719;944.6907;;;;
2021/04/23 08:18:54;;;;;;;2.4;1.6;;;;;;;27.11;25.7373;944.6806;;;;
2021/04/23 08:21:19;;;;;;;1.7;1.5;;;;;;;27.63;24.90137;944.7335;;;;
2021/04/23 08:23:46;;;;;;;2.8;1.8;;;;;;;26.74;25.01758;944.7721;;;;
2021/04/23 08:26:09;;;;;;;4.5;1.8;;;;;;;25.5;26.25977;944.6797;;;;
2021/04/23 08:28:35;;;;;;;1.7;1.2;;;;;;;24.98;26.18164;944.6889;;;;
2021/04/23 08:31:02;;;;;;;1.8;1.3;;;;;;;26.19;26.57227;944.7179;;;;
2021/04/23 08:33:27;;;;;;;2.2;1.2;;;;;;;25.72;25.6582;944.6481;;;;
2021/04/23 08:35:52;;;;;;;3.1;1.4;;;;;;;26.36;24.44043;944.6829;;;;
2021/04/23 08:38:17;;;;;;;3.8;1.5;;;;;;;26.04;24.8252;944.6473;;;;
2021/04/23 08:40:44;;;;;;;1.8;1.4;;;;;;;26.26;25.28613;944.7008;;;;
2021/04/23 08:43:09;;;;;;;1.6;1.3;;;;;;;25.96;25.68262;944.6114;;;;
2021/04/23 08:45:35;;;;;;;1.7;1;;;;;;;26.47;23.80664;944.647;;;;
2021/04/23 08:48:01;;;;;;;1.8;1.2;;;;;;;26.25;23.79492;944.6688;;;;
2021/04/23 08:50:26;;;;;;;4;1.2;;;;;;;25.25;24.70996;944.5912;;;;
2021/04/23 08:52:51;;;;;;;2;1.1;;;;;;;24.72;26.04883;944.5283;;;;
2021/04/23 08:55:17;;;;;;;1.9;1.3;;;;;;;22.81;29.85938;944.5889;;;;
2021/04/23 08:57:42;;;;;;;2;1.3;;;;;;;22.45;30.76172;944.5447;;;;
2021/04/23 09:00:10;;;;;;;1.8;1.5;;;;;;;21.33;32.55664;944.5739;;;;
2021/04/23 09:02:35;;;;;;;1.8;1.3;;;;;;;21.89;30.37109;944.6365;;;;
2021/04/23 09:05:00;;;;;;;2.2;1.4;;;;;;;20.87;32.18359;944.6434;;;;
2021/04/23 09:07:26;;;;;;;3.8;1.1;;;;;;;20.92;32.63184;944.6489;;;;
2021/04/23 09:09:52;;;;;;;1.7;1.3;;;;;;;20.27;32.22168;944.6099;;;;
2021/04/23 09:12:18;;;;;;;3.2;1.9;;;;;;;19.57;33.18457;944.5256;;;;
2021/04/23 09:14:43;;;;;;;2.2;1.4;;;;;;;19.88;33.38281;944.5956;;;;
2021/04/23 09:17:11;;;;;;;1.6;1.5;;;;;;;20.47;31.69824;944.6166;;;;
2021/04/23 09:19:36;;;;;;;2.4;1.2;;;;;;;20.79;32.1543;944.6317;;;;
2021/04/23 09:22:01;;;;;;;1.6;1.3;;;;;;;20.76;31.5332;944.6113;;;;
2021/04/23 09:24:26;;;;;;;1.4;0.9;;;;;;;20.76;30.17676;944.6437;;;;
2021/04/23 09:26:52;;;;;;;3.3;1.6;;;;;;;20.38;33.71289;944.6572;;;;
2021/04/23 09:29:17;;;;;;;1.7;1;;;;;;;20;32.72656;944.6875;;;;
2021/04/23 09:31:44;;;;;;;1.5;1;;;;;;;19.8;32.47852;944.6848;;;;
2021/04/23 09:34:10;;;;;;;1.7;1.1;;;;;;;19.84;33.64746;944.6554;;;;
2021/04/23 09:36:36;;;;;;;1.5;1;;;;;;;19.41;33.30176;944.6299;;;;
2021/04/23 09:39:00;;;;;;;1.2;0.8;;;;;;;19.35;34.69434;944.6122;;;;
2021/04/23 09:41:26;;;;;;;2.3;1.3;;;;;;;18.83;35.91113;944.6208;;;;
2021/04/23 09:43:51;;;;;;;3.6;1.7;;;;;;;19;33.57324;944.6349;;;;
2021/04/23 09:46:17;;;;;;;1.3;1;;;;;;;19.05;32.43555;944.6806;;;;
2021/04/23 09:48:42;;;;;;;1.4;1.1;;;;;;;19.26;34.15137;944.6345;;;;
2021/04/23 09:51:07;;;;;;;1.5;1.2;;;;;;;19.53;33.2168;944.6447;;;;
2021/04/23 09:53:36;;;;;;;1.5;0.9;;;;;;;19.07;34.42871;944.6181;;;;
2021/04/23 09:56:00;;;;;;;1.4;1.1;;;;;;;19.01;34.63281;944.6033;;;;
2021/04/23 09:58:28;;;;;;;2.3;1.1;;;;;;;18.74;34.4834;944.5637;;;;
2021/04/23 10:00:53;;;;;;;2.4;1.4;;;;;;;19.09;32.88086;944.5575;;;;
2021/04/23 10:03:18;;;;;;;1.2;0.9;;;;;;;19.6;31.88184;944.462;;;;
2021/04/23 10:05:47;;;;;;;3.1;1.3;;;;;;;19.28;32.96484;944.5204;;;;
2021/04/23 10:08:12;;;;;;;1.6;0.8;;;;;;;19.71;32.1582;944.56;;;;
2021/04/23 10:10:37;;;;;;;2.1;1.1;;;;;;;19.49;33.30664;944.5168;;;;
2021/04/23 10:13:08;;;;;;;2.5;1.3;;;;;;;19;35.26074;944.5235;;;;
2021/04/23 10:15:32;;;;;;;2.4;1.4;;;;;;;19.57;33.19629;944.5563;;;;
2021/04/23 10:17:57;;;;;;;2.9;1.3;;;;;;;19.53;33.30957;944.4475;;;;
2021/04/23 10:20:23;;;;;;;1.8;1;;;;;;;19.5;33.19141;944.4917;;;;
2021/04/23 10:22:48;;;;;;;1;0.9;;;;;;;19.67;32.97168;944.4492;;;;
2021/04/23 10:25:13;;;;;;;3.5;1;;;;;;;19.75;34.17773;944.4471;;;;
2021/04/23 10:27:38;;;;;;;5.5;1.2;;;;;;;19.55;34.2793;944.4128;;;;
2021/04/23 10:30:06;;;;;;;2.2;1.6;;;;;;;19.72;34.37402;944.4581;;;;
2021/04/23 10:32:31;;;;;;;1.6;1.1;;;;;;;19.77;33.77051;944.4606;;;;
2021/04/23 10:34:59;;;;;;;6.1;1.4;;;;;;;20.06;34.89063;944.4135;;;;
2021/04/23 10:37:24;;;;;;;1.7;1.3;;;;;;;21.13;30.0498;944.4172;;;;
2021/04/23 10:39:49;;;;;;;3.5;1.3;;;;;;;21.77;29.35547;944.3538;;;;
2021/04/23 10:42:16;;;;;;;2.2;1.3;;;;;;;20.82;31.87695;944.3431;;;;
2021/04/23 10:44:41;;;;;;;1.9;1.2;;;;;;;20.65;30.99902;944.2452;;;;
2021/04/23 10:47:06;;;;;;;0.9;0.8;;;;;;;20.8;31.39551;944.3773;;;;
2021/04/23 10:49:31;;;;;;;2.6;1.7;;;;;;;20.63;32.24805;944.3613;;;;
2021/04/23 10:51:57;;;;;;;3.7;1.4;;;;;;;20.49;31.47852;944.3231;;;;
2021/04/23 10:54:23;;;;;;;2.4;1.1;;;;;;;19.98;33.82227;944.2941;;;;
2021/04/23 10:56:51;;;;;;;0.9;0.8;;;;;;;20.44;31.93066;944.3517;;;;
2021/04/23 10:59:18;;;;;;;4.8;1.1;;;;;;;20.68;32.46191;944.2899;;;;
2021/04/23 11:01:45;;;;;;;1.5;1;;;;;;;20.88;31.81055;944.3273;;;;
2021/04/23 11:04:08;;;;;;;5.7;1.5;;;;;;;20.68;32.0293;944.2785;;;;
2021/04/23 11:06:34;;;;;;;1.6;0.9;;;;;;;20.52;33.16309;944.2935;;;;
2021/04/23 11:08:59;;;;;;;1.5;1.3;;;;;;;20.19;32.54199;944.2381;;;;
2021/04/23 11:11:24;;;;;;;1;0.8;;;;;;;20.16;33.29883;944.0947;;;;
2021/04/23 11:13:50;;;;;;;1.5;1;;;;;;;19.95;32.06934;944.2244;;;;
2021/04/23 11:16:14;;;;;;;2.2;1.3;;;;;;;20.18;32.12207;944.223;;;;
2021/04/23 11:18:39;;;;;;;1.1;0.8;;;;;;;20.72;30.52441;944.1961;;;;
2021/04/23 11:21:04;;;;;;;0.7;0.6;;;;;;;20.82;30.08789;944.1697;;;;
2021/04/23 11:23:29;;;;;;;1.2;1;;;;;;;20.93;31.14746;944.1653;;;;
2021/04/23 11:25:55;;;;;;;2.4;1.1;;;;;;;21.2;31.06055;944.1152;;;;
2021/04/23 11:28:19;;;;;;;1.8;1;;;;;;;20.89;32.79199;944.103;;;;
2021/04/23 11:30:45;;;;;;;3.9;0.8;;;;;;;21.51;29.9707;944.0887;;;;
2021/04/23 11:33:23;;;;;;;1.9;1.2;;;;;;;21.44;29.47461;944.0506;;;;
2021/04/23 11:35:39;;;;;;;1.2;0.8;;;;;;;21.11;29.68555;944.0539;;;;
2021/04/23 11:38:03;;;;;;;2.9;1;;;;;;;21.79;28.13867;944.0555;;;;
2021/04/23 11:40:29;;;;;;;2.8;1.8;;;;;;;22.26;27.78125;944.0455;;;;
2021/04/23 11:42:54;;;;;;;0.8;0.8;;;;;;;22.38;26.99121;943.9913;;;;
2021/04/23 11:45:19;;;;;;;1.4;1;;;;;;;22.97;27.30859;943.8507;;;;
2021/04/23 11:47:48;;;;;;;6;1.8;;;;;;;22.75;29.4209;943.9619;;;;
2021/04/23 11:50:16;;;;;;;1.1;0.7;;;;;;;23.33;26.46094;943.9607;;;;
2021/04/23 11:52:40;;;;;;;1.5;0.9;;;;;;;23.55;25.33301;943.955;;;;
2021/04/23 11:55:07;;;;;;;4.6;1;;;;;;;23.7;25.50684;943.9598;;;;
2021/04/23 11:57:31;;;;;;;2.5;1.2;;;;;;;22.86;27.9834;943.9092;;;;
2021/04/23 11:59:57;;;;;;;1;0.9;;;;;;;22.26;28.77734;943.902;;;;
2021/04/23 12:02:22;;;;;;;2.5;0.8;;;;;;;22.06;28.44824;943.949;;;;
2021/04/23 12:04:50;;;;;;;2.9;1.4;;;;;;;22.14;29.33301;943.8237;;;;
2021/04/23 12:07:14;;;;;;;2.1;0.8;;;;;;;21.52;30.66113;943.9702;;;;
2021/04/23 12:09:41;;;;;;;2.1;1.5;;;;;;;21.07;29.04004;943.9075;;;;
2021/04/23 12:12:07;;;;;;;1.2;0.9;;;;;;;21.59;29.00391;943.9336;;;;
2021/04/23 12:14:36;;;;;;;1.2;0.8;;;;;;;21.1;30.48047;943.9199;;;;
2021/04/23 12:17:02;;;;;;;1.2;0.9;;;;;;;20.82;30.32129;943.9535;;;;
2021/04/23 12:19:27;;;;;;;1;0.7;;;;;;;20.56;30.35059;943.884;;;;
2021/04/23 12:21:53;;;;;;;0.7;0.7;;;;;;;19.85;30.66309;943.9334;;;;
2021/04/23 12:24:18;;;;;;;1.3;1.1;;;;;;;19.47;32.2793;943.9202;;;;
2021/04/23 12:26:43;;;;;;;1.3;1.1;;;;;;;19.83;31.35059;943.9838;;;;
2021/04/23 12:29:10;;;;;;;3.8;1;;;;;;;20.3;30.36816;943.9136;;;;
2021/04/23 12:31:35;;;;;;;1.2;0.9;;;;;;;20.59;31.35645;943.8771;;;;
2021/04/23 12:34:00;;;;;;;0.9;0.8;;;;;;;20.76;30.37598;943.9394;;;;
2021/04/23 12:36:25;;;;;;;2.7;1.2;;;;;;;20.56;29.31055;943.9302;;;;
2021/04/23 12:38:51;;;;;;;0.8;0.7;;;;;;;20.42;30.39941;943.8884;;;;
2021/04/23 12:41:16;;;;;;;3.2;1.2;;;;;;;19.97;31.70996;943.8973;;;;
2021/04/23 12:43:43;;;;;;;1;0.8;;;;;;;19.83;32.95996;943.9127;;;;
2021/04/23 12:46:08;;;;;;;2.2;0.9;;;;;;;19.86;32.18066;943.9056;;;;
2021/04/23 12:48:33;;;;;;;0.7;0.7;;;;;;;19.81;31.62793;943.9281;;;;
2021/04/23 12:51:02;;;;;;;3.6;1.3;;;;;;;19.31;32.26855;943.9409;;;;
2021/04/23 12:53:23;;;;;;;3.7;1.1;;;;;;;18.46;34.05371;943.9662;;;;
2021/04/23 12:55:49;;;;;;;2;0.8;;;;;;;17.98;35.62109;943.885;;;;
2021/04/23 12:58:14;;;;;;;2.2;0.8;;;;;;;17.69;35.29492;943.973;;;;
2021/04/23 13:00:42;;;;;;;2;1;;;;;;;17.37;38.01758;944.0117;;;;
2021/04/23 13:03:07;;;;;;;0.5;0.4;;;;;;;17.44;37.08398;943.9269;;;;
2021/04/23 13:05:35;;;;;;;0.7;0.7;;;;;;;17.19;36.87793;943.9031;;;;
2021/04/23 13:08:00;;;;;;;1.4;1;;;;;;;17.1;37.90234;943.9586;;;;
2021/04/23 13:10:27;;;;;;;4.5;1;;;;;;;17.43;35.59961;943.8465;;;;
2021/04/23 13:12:52;;;;;;;0.8;0.7;;;;;;;17.39;37.59082;943.9536;;;;
2021/04/23 13:15:32;;;;;;;1.4;0.8;;;;;;;17.55;33.50879;943.9405;;;;
2021/04/23 13:18:00;;;;;;;1.3;1.1;;;;;;;17.7;34.40137;943.9736;;;;
2021/04/23 13:20:21;;;;;;;0.8;0.8;;;;;;;17.58;37.41016;943.8935;;;;
2021/04/23 13:22:47;;;;;;;4.6;1.3;;;;;;;17.71;34.36816;943.8544;;;;
2021/04/23 13:25:12;;;;;;;1.4;0.9;;;;;;;17.52;36.83594;943.8264;;;;
2021/04/23 13:27:37;;;;;;;1.7;1.2;;;;;;;17.47;35.6377;943.8606;;;;
2021/04/23 13:30:04;;;;;;;0.9;0.8;;;;;;;17.65;34.46777;943.7981;;;;
2021/04/23 13:32:29;;;;;;;1;0.9;;;;;;;17.5;34.02734;943.7516;;;;
2021/04/23 13:34:58;;;;;;;1.5;1.1;;;;;;;17.22;35.70996;943.7472;;;;
2021/04/23 13:37:23;;;;;;;0.6;0.6;;;;;;;17.46;35.52051;943.8438;;;;
2021/04/23 13:39:48;;;;;;;0.8;0.7;;;;;;;17.7;34.61035;943.761;;;;
2021/04/23 13:42:13;;;;;;;1.1;0.8;;;;;;;17.77;35.76563;943.7829;;;;
2021/04/23 13:44:39;;;;;;;2.2;0.9;;;;;;;17.72;35.5752;943.7271;;;;
2021/04/23 13:47:09;;;;;;;4.2;0.9;;;;;;;17.52;34.35352;943.7266;;;;
2021/04/23 13:49:32;;;;;;;0.5;0.4;;;;;;;17.36;35.59375;943.6986;;;;
2021/04/23 13:51:55;;;;;;;1;0.7;;;;;;;17.38;34.18066;943.605;;;;
2021/04/23 13:54:20;;;;;;;1.1;0.6;;;;;;;17.6;32.43359;943.6959;;;;
2021/04/23 13:56:47;;;;;;;2.8;0.9;;;;;;;17.69;31.83691;943.6805;;;;
2021/04/23 13:59:11;;;;;;;1.2;1.1;;;;;;;17.56;33.68359;943.7003;;;;
2021/04/23 14:01:36;;;;;;;1.6;0.7;;;;;;;17.33;33.39941;943.7028;;;;
2021/04/23 14:04:01;;;;;;;1.2;0.7;;;;;;;17.23;33.20605;943.6674;;;;
2021/04/23 14:06:26;;;;;;;1.4;0.9;;;;;;;17.05;31.75586;943.6514;;;;
2021/04/23 14:08:51;;;;;;;0.7;0.5;;;;;;;17.14;34.70605;943.5647;;;;
2021/04/23 14:11:16;;;;;;;1.4;0.7;;;;;;;17.26;32.08398;943.5898;;;;
2021/04/23 14:13:41;;;;;;;0.9;0.5;;;;;;;17.1;34.22852;943.5972;;;;
2021/04/23 14:16:14;;;;;;;2;1.1;;;;;;;17.21;32.80957;943.5948;;;;
2021/04/23 14:18:39;;;;;;;1.9;1;;;;;;;17.12;31.04199;943.5986;;;;
2021/04/23 14:21:04;;;;;;;2.1;1.1;;;;;;;16.82;34.66992;943.4789;;;;
2021/04/23 14:23:30;;;;;;;2.4;0.9;;;;;;;16.88;34.73145;943.4906;;;;
2021/04/23 14:25:55;;;;;;;1.3;0.8;;;;;;;16.81;33.23242;943.4489;;;;
2021/04/23 14:28:21;;;;;;;0.5;0.5;;;;;;;16.77;34.90918;943.4604;;;;
2021/04/23 14:30:46;;;;;;;1.5;0.9;;;;;;;16.47;33.71582;943.4124;;;;
2021/04/23 14:33:12;;;;;;;0.7;0.6;;;;;;;16.32;34.57227;943.3011;;;;
2021/04/23 14:35:37;;;;;;;1.8;0.9;;;;;;;16.42;33.36523;943.3459;;;;
2021/04/23 14:38:03;;;;;;;1.5;0.7;;;;;;;16.49;32.91895;943.2989;;;;
2021/04/23 14:40:28;;;;;;;1.9;1;;;;;;;16.51;33.91504;943.4428;;;;
2021/04/23 14:42:54;;;;;;;1.3;0.9;;;;;;;16.5;34.00684;943.4171;;;;
2021/04/23 14:45:19;;;;;;;1.3;0.9;;;;;;;16.46;33.44922;943.3618;;;;
2021/04/23 14:47:46;;;;;;;1;0.7;;;;;;;16.52;33.75391;943.3937;;;;
2021/04/23 14:50:11;;;;;;;0.9;0.8;;;;;;;16.44;33.06543;943.2349;;;;
2021/04/23 14:52:37;;;;;;;1.4;1;;;;;;;16.21;33.37207;943.3817;;;;
2021/04/23 14:55:02;;;;;;;1.7;0.7;;;;;;;15.9;33.19727;943.3624;;;;
2021/04/23 14:57:30;;;;;;;2.2;1;;;;;;;16.08;32.7373;943.4135;;;;
2021/04/23 14:59:55;;;;;;;1.1;0.6;;;;;;;16.31;31.29688;943.4177;;;;
2021/04/23 15:02:22;;;;;;;0.4;0.4;;;;;;;16.4;32.86523;943.3803;;;;
2021/04/23 15:04:48;;;;;;;2.8;1;;;;;;;16.41;32.35742;943.3296;;;;
2021/04/23 15:07:14;;;;;;;1.6;0.7;;;;;;;16.32;33.00977;943.298;;;;
2021/04/23 15:09:39;;;;;;;1.2;0.5;;;;;;;16.06;33.96191;943.2818;;;;
2021/04/23 15:12:04;;;;;;;3.9;0.6;;;;;;;16.02;33.35742;943.3719;;;;
2021/04/23 15:14:29;;;;;;;0.4;0.4;;;;;;;16.15;31.66699;943.3192;;;;
2021/04/23 15:16:54;;;;;;;1.8;1.1;;;;;;;16.26;31.47852;943.3505;;;;
2021/04/23 15:19:20;;;;;;;4.9;1.3;;;;;;;16.21;31.64746;943.3777;;;;
2021/04/23 15:21:45;;;;;;;2.5;0.9;;;;;;;16.23;31.51074;943.3923;;;;
2021/04/23 15:24:10;;;;;;;0.7;0.5;;;;;;;16.25;31.39648;943.3368;;;;
2021/04/23 15:26:36;;;;;;;0.5;0.4;;;;;;;16.2;30.92969;943.3592;;;;
2021/04/23 15:29:01;;;;;;;0.5;0.5;;;;;;;16.16;31.94531;943.3561;;;;
2021/04/23 15:31:26;;;;;;;5.8;0.5;;;;;;;16.13;31.13379;943.3466;;;;
2021/04/23 15:33:51;;;;;;;2.1;0.7;;;;;;;16.03;32.38672;943.3734;;;;
2021/04/23 15:36:20;;;;;;;1.8;0.8;;;;;;;15.99;31.66699;943.4391;;;;